Impacts METAR Board INFO
IDs:

KGTR - Golden Triangle Arpt, MS, US

Updated at: 0636 UTC 18 Feb 2018
Potential Impact None Slight Moderate High
Time17/18Z 17/19Z 17/20Z 17/21Z 17/22Z 17/23Z 18/00Z 18/01Z 18/02Z 18/03Z 18/04Z 18/05Z 18/06Z
VIS 10 10 10 10 2.5 4 5 10 10 10 10 10
CIG 23 25 19 7 7 7 7 14 7 9 11 13
CoverOVCOVCOVCOVCOVCOVCOVCOVCOVCOVCOVCOVC
FltCatMVFRMVFRMVFRIFRIFRIFRIFRMVFRIFRIFRMVFRMVFR
WX-------RA-RA BR-RA BRRA BR-RA--------
WDir22028031033031032032033034035036010
WSpd 8 5 10 12 7 8 7 8 7 8 10 12
WGst -- -- -- 18 -- -- -- -- -- -- -- --
Raw hourly METARs

KGTR 171856Z 22008KT 10SM OVC023 20/17 A3007 RMK AO2 RAB22E39 SLP184 P0000 T02000167
KGTR 171956Z 28005KT 10SM BKN025 OVC033 20/17 A3007 RMK AO2 SLP182 T02000167
KGTR 172056Z 31010KT 10SM BKN019 OVC025 18/16 A3008 RMK AO2 SLP188 60000 T01780156 55008
KGTR 172156Z 33012G18KT 10SM -RA OVC007 13/11 A3011 RMK AO2 RAB09E20B39 SLP199 P0000 T01280111
KGTR 172256Z 31007KT 2 1/2SM -RA BR BKN007 OVC010 12/12 A3013 RMK AO2 VIS 1 3/4V4 CIG 004V008 SLP205 P0002 T01220117
KGTR 172356Z 32008KT 4SM -RA BR OVC007 12/11 A3016 RMK AO2 CIG 004V008 SLP214 P0007 60009 T01170111 10206 20117 51024
KGTR 180056Z 32007KT 5SM RA BR BKN007 OVC011 11/11 A3020 RMK AO2 CIG 004V009 SLP228 P0012 T01110106
KGTR 180156Z AUTO 33008KT 10SM -RA FEW008 BKN014 OVC070 11/09 A3021 RMK AO2 SLP231 P0017 T01060094
KGTR 180256Z AUTO 34007KT 10SM OVC007 10/09 A3022 RMK AO2 RAE36 CIG 006V010 SLP237 P0001 60030 T01000089 53009
KGTR 180356Z AUTO 35008KT 10SM OVC009 09/08 A3023 RMK AO2 SLP238 T00940083
KGTR 180456Z AUTO 36010KT 10SM OVC011 09/08 A3023 RMK AO2 SLP240 T00940078
KGTR 180556Z AUTO 01012KT 10SM OVC013 09/07 A3023 RMK AO2 SLP238 60030 T00890072 10111 20089 402060089 50002